createdAt,value
2018-04-28T00:01:34.699Z,86.70
2018-04-28T00:04:02.230Z,86.70
2018-04-28T00:06:29.722Z,87.70
2018-04-28T00:08:57.259Z,87.60
2018-04-28T00:11:24.741Z,88.40
2018-04-28T00:13:52.170Z,89.10
2018-04-28T00:16:25.615Z,89.90
2018-04-28T00:18:56.467Z,90.30
2018-04-28T00:21:23.901Z,90.10
2018-04-28T00:23:52.104Z,90.70
2018-04-28T00:26:19.552Z,90.60
2018-04-28T00:28:50.679Z,90.90
2018-04-28T00:31:24.878Z,91.50
2018-04-28T00:33:54.979Z,92.20
2018-04-28T00:36:25.038Z,92.20
2018-04-28T00:39:04.002Z,92.60
2018-04-28T00:41:36.301Z,92.90
2018-04-28T00:44:13.606Z,93.40
2018-04-28T00:46:47.807Z,93.00
2018-04-28T00:49:16.887Z,93.00
2018-04-28T00:51:44.330Z,93.20
2018-04-28T00:54:26.327Z,93.20
2018-04-28T00:59:54.357Z,93.20
2018-04-28T01:02:23.281Z,94.60
2018-04-28T01:04:50.710Z,94.60
2018-04-28T01:07:18.156Z,94.60
2018-04-28T01:09:52.048Z,94.30
2018-04-28T01:12:19.487Z,94.30
2018-04-28T01:14:47.262Z,94.40
2018-04-28T01:17:19.180Z,94.00
2018-04-28T01:20:03.135Z,94.20
2018-04-28T01:22:37.103Z,93.90
2018-04-28T01:25:08.018Z,92.90
2018-04-28T01:27:39.039Z,92.90
2018-04-28T01:33:31.510Z,93.00
2018-04-28T01:36:14.628Z,93.40
2018-04-28T01:38:42.062Z,94.00
2018-04-28T01:44:16.103Z,93.70
2018-04-28T01:46:46.946Z,93.90
2018-04-28T01:49:17.782Z,94.20
2018-04-28T01:51:53.570Z,94.40
2018-04-28T01:57:13.147Z,94.10
2018-04-28T01:59:51.270Z,94.50
2018-04-28T02:02:20.276Z,94.70
2018-04-28T02:05:09.324Z,94.60
2018-04-28T02:07:37.536Z,94.70
2018-04-28T02:10:04.956Z,94.60
2018-04-28T02:12:50.065Z,94.70
2018-04-28T02:15:33.115Z,94.40
2018-04-28T02:18:06.444Z,94.10
2018-04-28T02:20:46.599Z,94.10
2018-04-28T02:23:15.698Z,94.10
2018-04-28T02:25:44.739Z,94.30
2018-04-28T02:28:19.966Z,94.30
2018-04-28T02:30:49.899Z,94.40
2018-04-28T02:33:17.340Z,94.60
2018-04-28T02:38:43.281Z,94.70
2018-04-28T02:41:17.343Z,95.30
2018-04-28T02:43:51.240Z,95.50
2018-04-28T02:49:13.238Z,95.30
2018-04-28T02:51:53.523Z,95.00
2018-04-28T02:54:22.906Z,94.60
2018-04-28T02:56:53.139Z,94.50
2018-04-28T02:59:23.396Z,94.50
2018-04-28T03:01:57.695Z,94.50
2018-04-28T03:07:38.010Z,94.20
2018-04-28T03:10:06.141Z,94.50
2018-04-28T03:12:33.563Z,94.20
2018-04-28T03:15:07.710Z,94.10
2018-04-28T03:17:38.682Z,94.00
2018-04-28T03:20:10.479Z,94.20
2018-04-28T03:22:38.682Z,94.50
2018-04-28T03:25:09.786Z,94.50
2018-04-28T03:30:50.466Z,93.90
2018-04-28T03:33:43.281Z,93.70
2018-04-28T03:36:14.508Z,94.00
2018-04-28T03:38:44.470Z,93.70
2018-04-28T03:41:18.662Z,93.70
2018-04-28T03:43:46.867Z,94.20
2018-04-28T03:46:17.056Z,94.10
2018-04-28T03:48:45.251Z,94.30
2018-04-28T03:51:19.330Z,94.30
2018-04-28T03:53:49.142Z,94.60
2018-04-28T03:56:16.583Z,94.90
2018-04-28T03:58:55.795Z,95.70
2018-04-28T04:01:35.071Z,95.90
2018-04-28T04:04:06.263Z,96.60
2018-04-28T04:06:41.303Z,96.60
2018-04-28T04:09:25.535Z,96.80
2018-04-28T04:11:57.462Z,96.90
2018-04-28T04:14:38.440Z,96.10
2018-04-28T04:17:25.535Z,96.10
2018-04-28T04:20:08.807Z,96.10
2018-04-28T04:26:03.981Z,96.00
2018-04-28T04:31:50.751Z,95.80
2018-04-28T04:34:23.783Z,96.40
2018-04-28T04:36:53.946Z,96.60
2018-04-28T04:42:28.758Z,96.60
2018-04-28T04:45:00.680Z,96.80
2018-04-28T04:47:40.018Z,97.10
2018-04-28T04:50:15.891Z,97.40
2018-04-28T04:56:09.957Z,97.30
2018-04-28T04:58:40.887Z,97.60
2018-04-28T05:01:14.815Z,97.80
2018-04-28T05:03:43.026Z,98.20
2018-04-28T05:06:20.283Z,98.50
2018-04-28T05:08:56.559Z,98.50
2018-04-28T05:11:29.950Z,98.80
2018-04-28T05:14:04.986Z,98.80
2018-04-28T05:19:53.418Z,97.50
2018-04-28T05:25:35.778Z,96.20
2018-04-28T05:28:10.860Z,95.90
2018-04-28T05:30:44.183Z,95.80
2018-04-28T05:33:23.486Z,96.10
2018-04-28T05:38:56.806Z,95.40
2018-04-28T05:41:36.705Z,95.20
2018-04-28T05:47:29.619Z,93.90
2018-04-28T05:50:00.427Z,92.90
2018-04-28T05:52:34.262Z,92.70
2018-04-28T05:55:16.119Z,93.00
2018-04-28T06:00:57.490Z,93.40
2018-04-28T06:03:36.531Z,94.10
2018-04-28T06:06:16.456Z,94.40
2018-04-28T06:11:45.235Z,94.20
2018-04-28T06:14:21.851Z,93.50
2018-04-28T06:16:51.771Z,93.70
2018-04-28T06:19:38.091Z,93.10
2018-04-28T06:22:05.530Z,93.50
2018-04-28T06:24:32.976Z,92.30
2018-04-28T06:27:00.393Z,91.80
2018-04-28T06:29:28.600Z,92.80
2018-04-28T06:31:56.091Z,92.30
2018-04-28T06:34:23.519Z,92.50
2018-04-28T06:36:50.950Z,92.30
2018-04-28T06:39:18.390Z,91.60
2018-04-28T06:41:46.596Z,90.60
2018-04-28T06:44:14.039Z,90.60
2018-04-28T06:46:41.468Z,90.80
2018-04-28T06:49:08.894Z,92.10
2018-04-28T06:51:36.317Z,92.40
2018-04-28T06:54:03.758Z,92.30
2018-04-28T06:56:31.186Z,90.70
2018-04-28T06:58:58.628Z,89.60
2018-04-28T07:01:26.046Z,84.40
2018-04-28T07:03:53.498Z,83.30
2018-04-28T07:06:20.930Z,84.40
2018-04-28T07:08:48.359Z,83.60
2018-04-28T07:11:15.782Z,84.90
2018-04-28T07:13:43.296Z,87.00
2018-04-28T07:16:10.773Z,89.10
2018-04-28T07:18:38.271Z,93.20
2018-04-28T07:21:05.739Z,95.00
2018-04-28T07:23:33.148Z,96.60
2018-04-28T07:26:00.586Z,97.00
2018-04-28T07:28:28.031Z,98.10
2018-04-28T07:30:56.229Z,99.40
2018-04-28T07:33:23.651Z,99.40
2018-04-28T07:35:51.865Z,98.90
2018-04-28T07:38:19.298Z,98.90
2018-04-28T07:40:46.735Z,98.50
2018-04-28T07:43:14.218Z,99.10
2018-04-28T07:45:41.676Z,99.90
2018-04-28T07:48:09.160Z,99.20
2018-04-28T07:50:36.675Z,99.90
2018-04-28T07:53:04.123Z,99.90
2018-04-28T07:55:32.370Z,99.90
2018-04-28T07:57:59.811Z,99.90
2018-04-28T08:00:27.375Z,98.50
2018-04-28T08:02:54.776Z,98.80
2018-04-28T08:05:22.978Z,97.00
2018-04-28T08:07:50.435Z,97.10
2018-04-28T08:10:17.891Z,98.60
2018-04-28T08:12:45.330Z,96.70
2018-04-28T08:15:12.911Z,98.30
2018-04-28T08:17:40.311Z,97.90
2018-04-28T08:20:07.750Z,97.00
2018-04-28T08:22:35.177Z,96.70
2018-04-28T08:25:02.615Z,97.50
2018-04-28T08:27:30.043Z,96.40
2018-04-28T08:29:58.339Z,93.30
2018-04-28T08:32:25.830Z,93.20
2018-04-28T08:34:53.331Z,92.40
2018-04-28T08:37:21.679Z,92.70
2018-04-28T08:39:49.080Z,92.70
2018-04-28T08:42:16.520Z,91.50
2018-04-28T08:44:44.788Z,94.10
2018-04-28T08:47:12.239Z,93.10
2018-04-28T08:49:40.107Z,92.40
2018-04-28T08:52:07.552Z,92.80
2018-04-28T08:54:34.991Z,92.80
2018-04-28T08:57:02.435Z,92.90
2018-04-28T08:59:41.700Z,93.90
2018-04-28T09:02:09.133Z,91.90
2018-04-28T09:04:36.578Z,92.50
2018-04-28T09:10:04.133Z,93.50
2018-04-28T09:12:31.566Z,92.30
2018-04-28T09:14:59.767Z,90.80
2018-04-28T09:17:27.195Z,90.80
2018-04-28T09:19:55.402Z,92.30
2018-04-28T09:22:22.838Z,92.30
2018-04-28T09:24:50.285Z,93.00
2018-04-28T09:27:18.500Z,93.90
2018-04-28T09:29:45.938Z,93.80
2018-04-28T09:32:13.380Z,94.80
2018-04-28T09:34:41.578Z,94.40
2018-04-28T09:37:09.023Z,94.40
2018-04-28T09:39:36.450Z,93.50
2018-04-28T09:42:03.886Z,93.80
2018-04-28T09:44:31.314Z,94.20
2018-04-28T09:46:58.812Z,93.40
2018-04-28T09:49:26.190Z,93.80
2018-04-28T09:51:53.634Z,93.40
2018-04-28T09:54:21.843Z,93.10
2018-04-28T09:56:49.286Z,93.20
2018-04-28T09:59:16.723Z,94.20
2018-04-28T10:01:44.946Z,92.60
2018-04-28T10:04:18.075Z,92.50
2018-04-28T10:06:45.511Z,93.10
2018-04-28T10:09:12.953Z,93.20
2018-04-28T10:11:40.394Z,92.90
2018-04-28T10:14:07.819Z,92.80
2018-04-28T10:16:35.299Z,90.50
2018-04-28T10:19:03.458Z,89.80
2018-04-28T10:21:30.894Z,89.80
2018-04-28T10:23:59.103Z,83.00
2018-04-28T10:26:27.306Z,84.20
2018-04-28T10:28:54.748Z,84.20
2018-04-28T10:31:22.209Z,85.50
2018-04-28T10:33:49.647Z,85.10
2018-04-28T10:36:17.100Z,82.10
2018-04-28T10:38:44.523Z,79.20
2018-04-28T10:41:12.732Z,78.90
2018-04-28T10:43:40.175Z,79.00
2018-04-28T10:46:07.603Z,77.20
2018-04-28T10:48:35.823Z,70.30
2018-04-28T10:51:03.255Z,70.10
2018-04-28T10:53:30.691Z,70.50
2018-04-28T10:55:58.907Z,67.40
2018-04-28T10:58:26.366Z,66.70
2018-04-28T11:00:53.791Z,68.50
2018-04-28T11:03:21.227Z,68.00
2018-04-28T11:05:49.434Z,67.40
2018-04-28T11:08:16.872Z,67.30
2018-04-28T11:10:45.070Z,69.00
2018-04-28T11:13:12.569Z,69.00
2018-04-28T11:15:39.943Z,69.30
2018-04-28T11:18:08.161Z,69.30
2018-04-28T11:20:35.594Z,68.50
2018-04-28T11:23:03.034Z,68.40
2018-04-28T11:25:31.302Z,68.30
2018-04-28T11:27:58.674Z,66.90
2018-04-28T11:30:26.880Z,67.60
2018-04-28T11:32:54.397Z,67.60
2018-04-28T11:35:21.753Z,68.10
2018-04-28T11:37:49.972Z,67.70
2018-04-28T11:40:17.414Z,66.10
2018-04-28T11:42:44.854Z,67.50
2018-04-28T11:45:12.288Z,66.30
2018-04-28T11:47:40.505Z,63.50
2018-04-28T11:50:07.928Z,63.40
2018-04-28T11:52:36.140Z,64.70
2018-04-28T11:55:03.587Z,64.70
2018-04-28T11:57:31.031Z,66.80
2018-04-28T11:59:58.492Z,66.00
2018-04-28T12:02:25.927Z,66.80
2018-04-28T12:04:54.137Z,65.80
2018-04-28T12:07:22.339Z,66.90
2018-04-28T12:09:49.776Z,66.90
2018-04-28T12:12:17.219Z,64.50
2018-04-28T12:14:44.662Z,63.10
2018-04-28T12:17:12.119Z,62.70
2018-04-28T12:19:39.557Z,61.90
2018-04-28T12:22:06.991Z,62.10
2018-04-28T12:24:34.434Z,61.20
2018-04-28T12:27:01.882Z,63.30
2018-04-28T12:29:29.327Z,60.60
2018-04-28T12:31:56.766Z,62.40
2018-04-28T12:34:24.208Z,60.20
2018-04-28T12:36:51.642Z,60.50
2018-04-28T12:39:19.866Z,61.60
2018-04-28T12:41:47.304Z,61.60
2018-04-28T12:44:14.748Z,63.00
2018-04-28T12:46:42.191Z,61.00
2018-04-28T12:49:10.394Z,61.30
2018-04-28T12:51:37.824Z,59.70
2018-04-28T12:54:05.262Z,60.30
2018-04-28T12:56:33.456Z,61.10
2018-04-28T12:59:00.892Z,61.10
2018-04-28T13:01:29.096Z,58.90
2018-04-28T13:03:56.538Z,58.30
2018-04-28T13:06:23.971Z,57.40
2018-04-28T13:08:51.406Z,61.10
2018-04-28T13:11:18.838Z,62.90
2018-04-28T13:13:46.291Z,60.70
2018-04-28T13:16:13.724Z,61.50
2018-04-28T13:18:41.158Z,61.50
2018-04-28T13:21:09.359Z,60.80
2018-04-28T13:23:36.794Z,60.70
2018-04-28T13:26:04.995Z,60.50
2018-04-28T13:28:32.428Z,60.30
2018-04-28T13:31:00.623Z,59.20
2018-04-28T13:33:28.055Z,59.10
2018-04-28T13:35:56.275Z,59.40
2018-04-28T13:38:23.724Z,59.90
2018-04-28T13:40:51.147Z,60.50
2018-04-28T13:43:19.366Z,61.50
2018-04-28T13:45:46.790Z,61.50
2018-04-28T13:48:14.261Z,60.10
2018-04-28T13:50:41.643Z,60.50
2018-04-28T13:53:09.082Z,61.00
2018-04-28T13:55:36.526Z,61.00
2018-04-28T13:58:03.958Z,59.80
2018-04-28T14:00:32.166Z,61.10
2018-04-28T14:02:59.594Z,61.10
2018-04-28T14:05:27.814Z,59.50
2018-04-28T14:07:55.243Z,59.50
2018-04-28T14:10:22.679Z,61.00
2018-04-28T14:12:50.884Z,61.30
2018-04-28T14:15:18.329Z,61.30
2018-04-28T14:17:45.758Z,61.60
2018-04-28T14:20:13.960Z,60.50
2018-04-28T14:22:41.391Z,60.50
2018-04-28T14:25:09.599Z,61.80
2018-04-28T14:27:37.040Z,61.80
2018-04-28T14:30:04.478Z,61.90
2018-04-28T14:32:32.674Z,63.70
2018-04-28T14:35:00.111Z,63.70
2018-04-28T14:37:27.543Z,62.70
2018-04-28T14:39:54.983Z,62.70
2018-04-28T14:42:23.207Z,63.10
2018-04-28T14:44:50.642Z,64.30
2018-04-28T14:47:18.843Z,65.20
2018-04-28T14:49:46.282Z,65.10
2018-04-28T14:52:13.720Z,64.60
2018-04-28T14:54:41.159Z,63.00
2018-04-28T14:57:08.599Z,63.00
2018-04-28T14:59:36.039Z,63.30
2018-04-28T15:02:03.467Z,63.10
2018-04-28T15:04:30.972Z,62.80
2018-04-28T15:06:59.107Z,65.00
2018-04-28T15:09:26.546Z,65.00
2018-04-28T15:11:54.739Z,65.10
2018-04-28T15:14:22.170Z,65.10
2018-04-28T15:16:50.383Z,65.20
2018-04-28T15:19:18.584Z,65.20
2018-04-28T15:21:46.018Z,65.20
2018-04-28T15:24:13.450Z,65.30
2018-04-28T15:26:40.882Z,64.80
2018-04-28T15:29:09.100Z,64.90
2018-04-28T15:31:36.539Z,64.90
2018-04-28T15:34:03.971Z,65.10
2018-04-28T15:36:32.180Z,64.60
2018-04-28T15:38:59.607Z,64.60
2018-04-28T15:41:27.818Z,65.20
2018-04-28T15:43:55.250Z,65.20
2018-04-28T15:46:22.682Z,65.70
2018-04-28T15:48:50.885Z,66.30
2018-04-28T15:51:18.319Z,66.30
2018-04-28T15:53:46.526Z,65.60
2018-04-28T15:56:13.980Z,65.60
2018-04-28T15:58:41.402Z,66.00
2018-04-28T16:01:09.613Z,67.40
2018-04-28T16:03:37.061Z,67.30
2018-04-28T16:06:04.496Z,66.30
2018-04-28T16:08:32.697Z,66.20
2018-04-28T16:11:00.152Z,66.20
2018-04-28T16:13:27.585Z,68.30
2018-04-28T16:15:55.015Z,67.60
2018-04-28T16:18:22.452Z,68.50
2018-04-28T16:20:49.890Z,68.50
2018-04-28T16:23:17.323Z,69.60
2018-04-28T16:25:44.758Z,69.40
2018-04-28T16:28:12.963Z,70.20
2018-04-28T16:30:40.406Z,69.70
2018-04-28T16:33:07.830Z,70.70
2018-04-28T16:35:35.258Z,71.40
2018-04-28T16:38:02.697Z,70.20
2018-04-28T16:40:30.141Z,70.10
2018-04-28T16:42:57.576Z,70.00
2018-04-28T16:45:25.015Z,70.30
2018-04-28T16:47:53.211Z,71.90
2018-04-28T16:50:20.677Z,71.90
2018-04-28T16:52:48.874Z,72.60
2018-04-28T16:55:16.330Z,72.40
2018-04-28T16:57:43.769Z,71.90
2018-04-28T17:00:11.206Z,72.30
2018-04-28T17:02:38.635Z,71.50
2018-04-28T17:05:06.067Z,71.80
2018-04-28T17:07:33.514Z,72.20
2018-04-28T17:10:00.956Z,71.70
2018-04-28T17:12:28.406Z,71.90
2018-04-28T17:14:55.827Z,71.40
2018-04-28T17:17:35.907Z,71.90
2018-04-28T17:20:03.331Z,71.90
2018-04-28T17:22:31.532Z,72.80
2018-04-28T17:24:59.008Z,72.20
2018-04-28T17:27:27.172Z,74.10
2018-04-28T17:29:54.623Z,72.70
2018-04-28T17:32:22.054Z,72.80
2018-04-28T17:34:50.374Z,74.10
2018-04-28T17:37:17.875Z,73.60
2018-04-28T17:39:45.343Z,73.70
2018-04-28T17:42:13.600Z,75.20
2018-04-28T17:44:41.054Z,74.70
2018-04-28T17:47:08.525Z,74.70
2018-04-28T17:49:35.947Z,75.40
2018-04-28T17:52:03.398Z,75.00
2018-04-28T17:54:30.831Z,75.60
2018-04-28T17:56:58.284Z,76.10
2018-04-28T17:59:25.714Z,76.70
2018-04-28T18:01:58.983Z,76.30
2018-04-28T18:04:26.418Z,76.60
2018-04-28T18:06:53.877Z,76.20
2018-04-28T18:09:21.319Z,76.40
2018-04-28T18:11:48.765Z,76.40
2018-04-28T18:14:16.186Z,76.50
2018-04-28T18:16:43.626Z,76.60
2018-04-28T18:19:11.828Z,77.50
2018-04-28T18:21:39.267Z,76.60
2018-04-28T18:24:06.691Z,77.30
2018-04-28T18:26:34.131Z,77.10
2018-04-28T18:29:01.591Z,77.20
2018-04-28T18:31:29.031Z,77.70
2018-04-28T18:33:56.889Z,77.90
2018-04-28T18:36:24.354Z,78.50
2018-04-28T18:38:51.852Z,78.70
2018-04-28T18:41:20.106Z,78.30
2018-04-28T18:43:47.568Z,77.90
2018-04-28T18:46:15.034Z,78.90
2018-04-28T18:48:42.455Z,78.10
2018-04-28T18:51:09.893Z,78.70
2018-04-28T18:53:37.670Z,79.10
2018-04-28T18:56:05.191Z,79.30
2018-04-28T18:58:32.682Z,79.90
2018-04-28T19:01:00.271Z,79.90
2018-04-28T19:03:27.747Z,78.10
2018-04-28T19:05:55.224Z,78.40
2018-04-28T19:08:23.431Z,78.50
2018-04-28T19:10:50.858Z,78.50
2018-04-28T19:13:18.297Z,80.30
2018-04-28T19:15:46.498Z,79.30
2018-04-28T19:18:13.939Z,79.90
2018-04-28T19:20:42.143Z,80.30
2018-04-28T19:23:09.586Z,80.30
2018-04-28T19:25:37.030Z,81.00
2018-04-28T19:28:04.470Z,81.10
2018-04-28T19:30:32.678Z,81.00
2018-04-28T19:33:00.116Z,81.20
2018-04-28T19:35:28.317Z,81.50
2018-04-28T19:37:55.973Z,81.40
2018-04-28T19:40:23.395Z,81.70
2018-04-28T19:42:51.602Z,81.50
2018-04-28T19:45:19.023Z,80.80
2018-04-28T19:47:47.245Z,81.60
2018-04-28T19:50:14.868Z,81.30
2018-04-28T19:52:42.404Z,82.20
2018-04-28T19:55:10.620Z,83.00
2018-04-28T19:57:38.085Z,82.30
2018-04-28T20:00:05.513Z,83.20
2018-04-28T20:02:33.878Z,83.50
2018-04-28T20:05:02.090Z,83.50
2018-04-28T20:13:19.006Z,83.90
2018-04-28T20:15:55.673Z,84.60
2018-04-28T20:18:23.166Z,84.50
2018-04-28T20:20:50.593Z,84.80
2018-04-28T20:23:30.579Z,85.60
2018-04-28T20:26:18.653Z,85.70
2018-04-28T20:28:46.077Z,85.90
2018-04-28T20:31:13.517Z,86.60
2018-04-28T20:33:40.955Z,87.30
2018-04-28T20:36:08.474Z,87.80
2018-04-28T20:38:36.621Z,87.80
2018-04-28T20:41:04.051Z,88.30
2018-04-28T20:43:31.492Z,88.90
2018-04-28T20:45:59.696Z,89.30
2018-04-28T20:48:28.139Z,89.30
2018-04-28T20:50:56.362Z,90.00
2018-04-28T20:53:23.804Z,90.00
2018-04-28T20:55:57.846Z,89.80
2018-04-28T20:58:25.289Z,90.60
2018-04-28T21:00:52.724Z,90.20
2018-04-28T21:03:20.158Z,90.60
2018-04-28T21:05:47.601Z,91.00
2018-04-28T21:08:15.812Z,90.90
2018-04-28T21:10:43.254Z,90.80
2018-04-28T21:13:10.695Z,90.60
2018-04-28T21:15:38.899Z,91.10
2018-04-28T21:18:07.114Z,90.50
2018-04-28T21:20:34.548Z,90.50
2018-04-28T21:23:01.999Z,90.60
2018-04-28T21:25:29.446Z,90.80
2018-04-28T21:27:56.878Z,91.10
2018-04-28T21:30:24.315Z,91.20
2018-04-28T21:32:52.526Z,90.60
2018-04-28T21:35:19.977Z,90.50
2018-04-28T21:37:47.442Z,90.70
2018-04-28T21:40:14.851Z,90.60
2018-04-28T21:42:43.070Z,90.30
2018-04-28T21:45:10.907Z,90.10
2018-04-28T21:47:38.339Z,90.40
2018-04-28T21:50:05.779Z,90.50
2018-04-28T21:52:33.220Z,90.30
2018-04-28T21:55:00.663Z,89.90
2018-04-28T21:57:28.106Z,89.80
2018-04-28T21:59:55.539Z,89.30
2018-04-28T22:02:23.738Z,89.60
2018-04-28T22:04:51.182Z,89.60
2018-04-28T22:07:18.607Z,90.00
2018-04-28T22:09:46.044Z,88.80
2018-04-28T22:12:13.490Z,89.60
2018-04-28T22:14:40.931Z,88.00
2018-04-28T22:17:08.350Z,86.90
2018-04-28T22:19:35.786Z,86.60
2018-04-28T22:22:03.227Z,86.20
2018-04-28T22:24:30.675Z,85.70
2018-04-28T22:26:58.121Z,85.70
2018-04-28T22:29:25.607Z,84.80
2018-04-28T22:31:53.011Z,83.10
2018-04-28T22:34:20.448Z,83.40
2018-04-28T22:36:47.878Z,83.40
2018-04-28T22:39:15.323Z,81.90
2018-04-28T22:41:42.746Z,81.70
2018-04-28T22:44:10.196Z,82.80
2018-04-28T22:46:37.618Z,82.80
2018-04-28T22:49:05.051Z,82.70
2018-04-28T22:51:32.485Z,82.30
2018-04-28T22:53:59.909Z,82.90
2018-04-28T22:56:28.115Z,83.40
2018-04-28T22:58:55.542Z,83.30
2018-04-28T23:01:23.759Z,83.00
2018-04-28T23:03:51.190Z,82.20
2018-04-28T23:06:18.628Z,82.70
2018-04-28T23:08:46.058Z,82.90
2018-04-28T23:11:13.506Z,82.80
2018-04-28T23:13:40.952Z,82.50
2018-04-28T23:16:08.403Z,83.30
2018-04-28T23:18:35.854Z,82.50
2018-04-28T23:21:03.299Z,82.30
2018-04-28T23:23:30.730Z,81.90
2018-04-28T23:25:58.164Z,82.40
2018-04-28T23:28:26.358Z,83.60
2018-04-28T23:30:53.800Z,83.10
2018-04-28T23:33:21.999Z,83.50
2018-04-28T23:35:49.436Z,83.50
2018-04-28T23:38:17.640Z,83.30
2018-04-28T23:40:45.074Z,83.20
2018-04-28T23:43:12.504Z,82.90
2018-04-28T23:45:39.997Z,82.00
2018-04-28T23:48:07.364Z,82.90
2018-04-28T23:50:34.827Z,83.30
2018-04-28T23:53:02.278Z,83.20
2018-04-28T23:55:29.721Z,82.40
2018-04-28T23:57:57.150Z,82.60
